Memorial Field
KHOT : now visible

Airfield :











YOU CAN JOIN US ON...

 
LOGIN :

Register | Disclaimer

   EN    FR    IT 

 









Legend :    VFR   Marginal VFR   IFR   Intensive IFR   Very Intensive IFR
Visi :
Ceiling :
>= 8 km
>= 3000ft
5 to 8 km
1000 to 3000 ft
1500m to 5 km
500 to 1000 ft
800 to 1500m
200 to 500 ft
< 800m
< 200 ft
Symbols :   Thunderstorms  Fog  Heavy snow  Heavy precipitations  Wind > 20 kt






- Airport Elevation : 540 ft
- IATA code : HOT


KHOT - Memorial Field

CURRENT METAR :
  • 272253Z AUTO 09006KT 10SM OVC007 10/08 A3009 RMK AO2 SLP188 T01000078

EXPIRED METARs :
  • 272153Z AUTO 05008KT 10SM OVC009 10/08 A3009 RMK AO2 SLP186 T01000078
  • 272053Z AUTO 07006KT 10SM OVC009 10/08 A3009 RMK AO2 SLP189 T01000078 56025

TAF KHOT
Valid from the 28 at 00:00 until the 29 at 00:00 UTC


272320Z 2800/2824 07008KT P6SM BKN008 OVC015
FM280600 06006KT 6SM BR BKN007 OVC015
TEMPO 2809/2813 4SM -DZRA OVC007
FM281300 07008KT 5SM -SHRA BR VCTS BKN008 OVC015CB
PROB30 2813/2818 2SM SHRA BR BKN004 OVC008
FM281800 06008KT 4SM -SHRA BR VCTS BKN008 OVC012CB
PROB30 2818/2824 2SM TSRA BR BKN004 OVC008CB
KZME FIR / North America



MET'MAP, your aeronautical weather chart ! - Copyright ORBIFLY December 2007 - Disclaimer

ORBIFLY MET'MAP TEAM :

Programming & Development : Alexandra Zaïnal
Concept & original design : Baudouin d'Aumeries
Assistance for programming : Marc-Olivier Méhu
Technical & hardware support : Manuel Goepfert

Contact : metmap@orbifly.com




SOURCES & CREDITS :

   NOAA       Earth
Advisory